Detalii statie BONGA [00001D00]

Toti senzorii

Date Temperatura solului [C]Precipitatii [mm]Voltaj baterie [mV]Leaf Wetness [Min]HC Air temperature [C]HC Relative humidity [%]Punctul de roua [C]
medieminmaxsumaultimatimpmedieminmaxmediemediemin
2020-01-25 15:00:00 -0.2 -0.4 -0.2 0 6318 11.81 11.01 12.41 0 0 0
2020-01-25 16:00:00 -0.3 -0.5 -0.2 0 6318 10.34 7.2 11.97 0 0 0
2020-01-25 17:00:00 -0.6 -0.7 -0.5 0 6318 2.92 1 6.49 0 0 0
2020-01-25 18:00:00 -0.7 -0.8 -0.6 0 6318 -0.93 -2.82 1.2 0 0 0
2020-01-25 19:00:00 -0.7 -1 -0.7 0 6308 -3.08 -4.06 -1.6 0 0 0
2020-01-25 20:00:00 -0.7 -0.9 -0.7 0 6278 -4.34 -4.84 -3.71 0 0 0
2020-01-25 21:00:00 -0.8 -0.9 -0.8 0 6268 -4.71 -5.62 -4.02 0 0 0
2020-01-25 22:00:00 -0.8 -1 -0.8 0 6268 -5.32 -6.12 -4.8 0 0 0
2020-01-25 23:00:00 -0.9 -1 -0.9 0 6258 -5.72 -6.5 -4.64 0 0 0
2020-01-26 00:00:00 -1 -1.3 -0.9 0 6250 -6.36 -7.2 -5.51 0 0 0
2020-01-26 01:00:00 -1 -1.4 -1 0 6250 -6.96 -7.59 -6.64 0 0 0
2020-01-26 02:00:00 -1.1 -1.2 -1.1 0 6250 -7.16 -8.22 -5.99 0 0 0
2020-01-26 03:00:00 -1.2 -1.3 -1.1 0 6240 -7.97 -8.58 -7.31 0 0 0
2020-01-26 04:00:00 -1.2 -1.4 -1.1 0 6240 -8.2 -8.88 -7.49 0 0 0
2020-01-26 05:00:00 -1.2 -1.5 -1.2 0 6240 -7.95 -9.01 -7.09 0 0 0
2020-01-26 06:00:00 -1.3 -1.4 -1.3 0 6268 -8.51 -9.2 -8 0 0 0
2020-01-26 07:00:00 -1.3 -1.6 -1.3 0 6230 -8.66 -8.99 -7.85 0 0 0
2020-01-26 08:00:00 -1.4 -1.7 -1.3 0 6268 -9.01 -9.69 -7.68 0 0 0
2020-01-26 09:00:00 -1.3 -1.5 -1.2 0 6278 -4.99 -7.68 -2.83 0 0 0
2020-01-26 10:00:00 -1 -1.2 -0.8 0 6288 -0.74 -1.92 -0.09 0 0 0
2020-01-26 11:00:00 -0.7 -0.9 -0.7 0 6298 2.09 0.22 4 0 0 0
2020-01-26 12:00:00 -0.5 -0.7 -0.5 0 6308 5.63 4.12 7.54 0 0 0
2020-01-26 13:00:00 -0.4 -0.6 -0.4 0 6318 8.12 7.01 8.85 0 0 0
2020-01-26 14:00:00 -0.4 -0.7 -0.3 0 6318 8.92 7.75 9.52 0 0 0
2020-01-26 15:00:00 -0.3 -0.4 -0.3 0 6328 9.49 9.12 9.92 0 0 0
2020-01-26 16:00:00 -0.3 -0.5 -0.3 0 6328 8.19 5.6 9.41 0 0 0
2020-01-26 17:00:00 -0.6 -0.7 -0.5 0 6318 2.44 0.63 5.66 0 0 0
2020-01-26 18:00:00 -0.6 -0.8 -0.6 0 6298 -1.08 -2.58 1.32 0 0 0
2020-01-26 19:00:00 -0.8 -0.9 -0.8 0 6308 -3.11 -3.68 -2.38 0 0 0
2020-01-26 20:00:00 -0.8 -1 -0.7 0 6278 -4.27 -4.6 -3.91 0 0 0
2020-01-26 21:00:00 -0.9 -1 -0.9 0 6268 -4.2 -4.68 -3.8 0 0 0
2020-01-26 22:00:00 -1 -1.2 -0.9 0 6268 -4.78 -5.15 -4.43 0 0 0
2020-01-26 23:00:00 -1.1 -1.4 -1 0 6278 -4.88 -5.35 -4.42 0 0 0
2020-01-27 00:00:00 -1.1 -1.4 -1 0 6258 -4.55 -4.97 -3.86 0 0 0
2020-01-27 01:00:00 -1.2 -1.5 -1.1 0 6278 -5.19 -5.79 -4.58 0 0 0
2020-01-27 02:00:00 -1.2 -1.3 -1.2 0 6250 -5.78 -6.46 -4.82 0 0 0
2020-01-27 03:00:00 -1.2 -1.4 -1.1 0 6268 -5.86 -6.21 -5.37 0 0 0
2020-01-27 04:00:00 -1.2 -1.5 -1.2 0 6240 -5.63 -6.18 -5.23 0 0 0
2020-01-27 05:00:00 -1.3 -1.6 -1.2 0 6240 -6 -6.4 -5.61 0 0 0
2020-01-27 06:00:00 -1.3 -1.7 -1.2 0 6240 -6.27 -6.81 -5.91 0 0 0
2020-01-27 07:00:00 -1.3 -1.5 -1.2 0 6268 -6.47 -7.02 -6.26 0 0 0
2020-01-27 08:00:00 -1.4 -1.5 -1.4 0 6240 -6.68 -7.05 -6.4 0 0 0
2020-01-27 09:00:00 -1.3 -1.5 -1.2 0 6268 -4.1 -6.35 -2.07 0 0 0
2020-01-27 10:00:00 -1 -1.2 -0.9 0 6288 0.12 -1.84 1.85 0 0 0
2020-01-27 11:00:00 -0.7 -1 -0.7 0 6298 3.71 2.14 5.49 0 0 0
2020-01-27 12:00:00 -0.5 -0.7 -0.5 0 6308 7.01 5.32 8.64 0 0 0
2020-01-27 13:00:00 -0.4 -0.6 -0.3 0 6318 9.55 8.71 10.68 0 0 0
2020-01-27 14:00:00 -0.2 -0.4 0 0 6328 10.86 10.37 11.4 0 0 0